Time;durP1;ratioP1;P1;durP2;ratioP2;P2;SDS_P1;SDS_P2;PMS_P1;PMS_P2;Temp;Humidity;BMP_temperature;BMP_pressure;BME280_temperature;BME280_humidity;BME280_pressure;Samples;Min_cycle;Max_cycle;Signal;HPM_P1;HPM_P2
2022/10/30 00:00:30;;;;;;;44.63;28.73;;;;;;;9.96;96.74;95449.63;5031868;28;20183;-77
2022/10/30 00:02:57;;;;;;;44.70;27.23;;;;;;;9.96;96.35;95462.59;5031774;28;20198;-77
2022/10/30 00:05:24;;;;;;;50.33;28.57;;;;;;;9.96;96.60;95460.00;5031394;28;20257;-77
2022/10/30 00:07:51;;;;;;;46.63;28.23;;;;;;;9.92;95.89;95450.22;5018634;28;20214;-77
2022/10/30 00:10:18;;;;;;;49.37;28.03;;;;;;;9.88;97.38;95446.38;5031646;28;20221;-79
2022/10/30 00:12:45;;;;;;;42.90;26.67;;;;;;;9.80;97.40;95449.97;5031737;28;20195;-79
2022/10/30 00:15:13;;;;;;;52.53;29.23;;;;;;;9.86;96.86;95446.59;5031257;28;20202;-78
2022/10/30 00:17:41;;;;;;;49.67;26.90;;;;;;;9.91;96.83;95458.97;5031635;28;20202;-77
2022/10/30 00:20:08;;;;;;;43.47;25.87;;;;;;;9.89;97.04;95460.97;5031987;28;20611;-78
2022/10/30 00:22:36;;;;;;;48.60;26.40;;;;;;;9.88;96.92;95452.38;5031362;28;20190;-78
2022/10/30 00:25:03;;;;;;;45.70;26.90;;;;;;;9.87;97.23;95458.56;5031572;28;20198;-78
2022/10/30 00:27:31;;;;;;;52.93;29.57;;;;;;;9.84;96.98;95451.16;5030980;28;20195;-78
2022/10/30 00:29:58;;;;;;;52.30;29.23;;;;;;;9.87;96.94;95452.59;5030599;28;20588;-79
2022/10/30 00:32:26;;;;;;;54.73;29.50;;;;;;;9.82;96.29;95447.97;5031883;28;20628;-78
2022/10/30 00:34:53;;;;;;;51.80;28.93;;;;;;;9.77;96.81;95446.94;5029406;28;20198;-78
2022/10/30 00:37:19;;;;;;;51.77;27.53;;;;;;;9.69;97.16;95445.31;5031359;28;20248;-79
2022/10/30 00:39:46;;;;;;;50.87;28.07;;;;;;;9.64;98.04;95450.25;5031256;28;20191;-76
2022/10/30 00:42:14;;;;;;;51.53;28.93;;;;;;;9.59;97.70;95448.25;5031230;28;20202;-76
2022/10/30 00:44:47;;;;;;;53.23;29.43;;;;;;;9.55;97.30;95441.06;5031084;28;20222;-76
2022/10/30 00:47:19;;;;;;;49.20;28.40;;;;;;;9.65;97.32;95451.88;5031204;28;20273;-76
2022/10/30 00:49:55;;;;;;;47.03;28.37;;;;;;;9.57;97.25;95450.25;5031168;28;20227;-76
2022/10/30 00:52:24;;;;;;;50.93;28.87;;;;;;;9.52;97.78;95451.81;5031821;28;20182;-78
2022/10/30 00:54:53;;;;;;;49.40;27.90;;;;;;;9.55;96.95;95447.03;5028825;28;20194;-76
2022/10/30 00:57:20;;;;;;;50.30;27.90;;;;;;;9.57;97.03;95439.88;5032140;28;20198;-78
2022/10/30 00:59:47;;;;;;;50.23;28.90;;;;;;;9.65;96.87;95431.91;5031786;28;20206;-77
2022/10/30 01:02:14;;;;;;;49.13;27.57;;;;;;;9.61;96.28;95440.25;5031758;28;20202;-77
2022/10/30 01:04:43;;;;;;;48.27;28.20;;;;;;;9.55;97.42;95433.28;5031582;28;20199;-77
2022/10/30 01:07:15;;;;;;;38.70;24.50;;;;;;;9.50;98.02;95433.03;5031421;28;20195;-78
2022/10/30 01:09:42;;;;;;;34.87;21.70;;;;;;;9.48;99.04;95437.63;5031740;28;20245;-77
2022/10/30 01:12:09;;;;;;;32.53;22.23;;;;;;;9.45;100.00;95425.84;5031612;28;20559;-78
2022/10/30 01:14:41;;;;;;;44.90;26.13;;;;;;;9.41;98.66;95418.59;5031159;28;20672;-76
2022/10/30 01:17:37;;;;;;;42.30;25.27;;;;;;;9.33;99.24;95419.56;5031437;28;20187;-78
2022/10/30 01:20:18;;;;;;;42.67;25.23;;;;;;;9.38;98.82;95412.00;5030211;28;20202;-78
2022/10/30 01:22:55;;;;;;;44.40;26.23;;;;;;;9.40;98.76;95407.44;5022772;28;20187;-77
2022/10/30 01:25:36;;;;;;;44.63;26.50;;;;;;;9.33;97.89;95404.00;5031805;28;20183;-76
2022/10/30 01:28:12;;;;;;;54.60;26.00;;;;;;;9.35;98.14;95404.59;5032445;28;20194;-77
2022/10/30 01:30:51;;;;;;;39.00;25.77;;;;;;;9.27;98.19;95407.38;5035553;28;20218;-76
2022/10/30 01:33:31;;;;;;;51.17;26.37;;;;;;;9.21;99.21;95407.31;5035452;28;20194;-78
2022/10/30 01:36:07;;;;;;;38.87;26.00;;;;;;;9.24;98.65;95409.53;5034801;28;20252;-77
2022/10/30 01:38:39;;;;;;;41.80;25.03;;;;;;;9.24;98.93;95410.34;5035184;28;20715;-77
2022/10/30 01:41:06;;;;;;;40.23;25.27;;;;;;;9.17;98.77;95400.94;5034595;28;20635;-76
2022/10/30 01:43:34;;;;;;;37.40;23.77;;;;;;;9.25;98.34;95396.38;5031886;28;20245;-76
2022/10/30 01:46:17;;;;;;;39.00;23.47;;;;;;;9.27;98.95;95401.38;5034590;28;20198;-76
2022/10/30 01:48:57;;;;;;;42.07;24.80;;;;;;;9.27;98.46;95396.19;5032848;28;20199;-75
2022/10/30 01:51:45;;;;;;;39.23;25.07;;;;;;;9.17;98.53;95404.31;5032949;28;20203;-76
2022/10/30 01:54:23;;;;;;;40.30;23.50;;;;;;;9.20;98.49;95398.75;5024058;28;20186;-76
2022/10/30 01:57:01;;;;;;;39.47;23.40;;;;;;;9.24;98.45;95404.34;5034922;28;20599;-76
2022/10/30 01:59:35;;;;;;;34.77;21.57;;;;;;;9.14;98.53;95394.34;5034502;28;20194;-75
2022/10/30 02:02:02;;;;;;;36.63;23.43;;;;;;;9.17;98.97;95395.75;5034414;28;20194;-76
2022/10/30 02:04:29;;;;;;;40.23;22.20;;;;;;;9.16;98.95;95394.13;5034070;28;20342;-76
2022/10/30 02:06:56;;;;;;;34.80;21.33;;;;;;;9.13;99.21;95390.94;5034170;28;20203;-77
2022/10/30 02:09:25;;;;;;;32.90;21.17;;;;;;;9.08;98.55;95398.50;5033799;28;20253;-75
2022/10/30 02:11:53;;;;;;;35.53;21.63;;;;;;;8.97;99.47;95385.25;5028369;28;20227;-75
2022/10/30 02:14:28;;;;;;;32.70;21.53;;;;;;;9.04;99.12;95397.25;5033740;28;20249;-76
2022/10/30 02:16:58;;;;;;;33.67;20.67;;;;;;;9.05;99.30;95393.69;5031972;28;20656;-76
2022/10/30 02:19:25;;;;;;;35.50;21.47;;;;;;;9.02;98.42;95388.06;5034130;28;20191;-75
2022/10/30 02:21:53;;;;;;;34.70;21.43;;;;;;;9.02;99.17;95388.88;5031198;28;20183;-76
2022/10/30 02:24:20;;;;;;;30.37;20.43;;;;;;;8.97;98.35;95374.88;5033471;28;20194;-75
2022/10/30 02:26:47;;;;;;;33.87;20.90;;;;;;;8.96;99.08;95381.03;5028129;28;20198;-75
2022/10/30 02:29:14;;;;;;;29.10;19.37;;;;;;;8.94;99.05;95381.25;5028885;28;20191;-76
2022/10/30 02:31:41;;;;;;;33.57;20.00;;;;;;;8.99;99.14;95380.66;5033221;28;20224;-75
2022/10/30 02:34:07;;;;;;;22.37;15.90;;;;;;;8.93;99.70;95381.41;5033378;28;20692;-75
2022/10/30 02:36:34;;;;;;;23.83;15.57;;;;;;;8.94;99.22;95383.03;5033336;28;20203;-76
2022/10/30 02:39:03;;;;;;;26.70;17.23;;;;;;;8.93;100.00;95377.03;5033030;28;20777;-76
2022/10/30 02:41:29;;;;;;;26.93;17.47;;;;;;;8.83;99.09;95371.38;5033659;28;20191;-75
2022/10/30 02:43:56;;;;;;;28.93;17.47;;;;;;;8.85;99.42;95378.97;5032984;28;20215;-76
2022/10/30 02:46:23;;;;;;;25.90;16.50;;;;;;;8.80;99.76;95383.94;5033640;28;20195;-76
2022/10/30 02:48:50;;;;;;;33.07;16.83;;;;;;;8.74;99.01;95364.75;5033377;28;20191;-76
2022/10/30 02:51:17;;;;;;;24.07;17.13;;;;;;;8.83;99.22;95392.13;5032933;28;20214;-78
2022/10/30 02:53:46;;;;;;;25.90;17.47;;;;;;;8.80;99.33;95389.13;5033223;28;20662;-78
2022/10/30 02:56:15;;;;;;;28.53;17.83;;;;;;;8.76;99.69;95387.88;5031072;28;20201;-77
2022/10/30 02:58:42;;;;;;;26.47;18.10;;;;;;;8.74;99.47;95395.84;5032951;28;20194;-77
2022/10/30 03:01:10;;;;;;;25.40;17.47;;;;;;;8.77;98.99;95392.09;5032874;28;20187;-79
2022/10/30 03:03:37;;;;;;;26.60;17.87;;;;;;;8.72;99.08;95395.22;5033017;28;20202;-76
2022/10/30 03:06:07;;;;;;;29.83;17.40;;;;;;;8.75;98.93;95397.44;5032673;28;20191;-77
2022/10/30 03:08:34;;;;;;;25.47;15.93;;;;;;;8.68;99.19;95395.81;5030572;28;20191;-77
2022/10/30 03:11:02;;;;;;;23.07;16.00;;;;;;;8.74;98.52;95395.06;5032530;28;20712;-80
2022/10/30 03:13:33;;;;;;;24.20;16.07;;;;;;;8.67;99.89;95402.78;5029884;28;20636;-78
2022/10/30 03:16:01;;;;;;;22.67;15.40;;;;;;;8.62;99.98;95394.75;5033407;28;20194;-77
2022/10/30 03:18:28;;;;;;;26.33;16.17;;;;;;;8.59;100.00;95409.88;5033006;28;20265;-79
2022/10/30 03:20:59;;;;;;;22.63;16.00;;;;;;;8.60;100.00;95411.50;5033170;28;20201;-78
2022/10/30 03:23:26;;;;;;;20.97;15.97;;;;;;;8.63;99.51;95405.94;5033037;28;20219;-78
2022/10/30 03:25:54;;;;;;;20.20;15.60;;;;;;;8.61;100.00;95408.69;5033075;28;20553;-78
2022/10/30 03:28:22;;;;;;;26.47;17.17;;;;;;;8.60;100.00;95404.50;5032627;28;20214;-76
2022/10/30 03:30:51;;;;;;;22.63;16.63;;;;;;;8.54;100.00;95395.69;5032610;28;20658;-76
2022/10/30 03:33:18;;;;;;;28.47;18.47;;;;;;;8.56;100.00;95398.09;5032454;28;20195;-77
2022/10/30 03:35:45;;;;;;;30.00;19.37;;;;;;;8.52;100.00;95396.84;5032482;28;20273;-76
2022/10/30 03:38:12;;;;;;;28.03;16.80;;;;;;;8.53;99.47;95404.47;5033052;28;20191;-77
2022/10/30 03:40:39;;;;;;;28.57;18.53;;;;;;;8.47;99.82;95410.38;5032336;28;20657;-76
2022/10/30 03:43:05;;;;;;;31.07;20.17;;;;;;;8.48;100.00;95403.41;5032310;28;20288;-76
2022/10/30 03:45:33;;;;;;;30.97;20.17;;;;;;;8.41;99.92;95394.78;5029989;28;20584;-76
2022/10/30 03:48:02;;;;;;;34.83;20.40;;;;;;;8.44;100.00;95395.22;5032559;28;20551;-76
2022/10/30 03:50:29;;;;;;;26.73;18.83;;;;;;;8.39;100.00;95399.34;5031214;28;20191;-76
2022/10/30 03:52:56;;;;;;;26.80;19.17;;;;;;;8.41;100.00;95399.94;5032590;28;20370;-76
2022/10/30 03:55:23;;;;;;;27.60;18.67;;;;;;;8.40;100.00;95398.34;5032369;28;20253;-76
2022/10/30 03:57:50;;;;;;;31.37;21.97;;;;;;;8.40;100.00;95398.34;5031944;28;20187;-76
2022/10/30 04:00:18;;;;;;;31.97;22.87;;;;;;;8.40;100.00;95388.78;5032438;28;20195;-78
2022/10/30 04:02:46;;;;;;;37.30;24.47;;;;;;;8.38;100.00;95385.59;5031728;28;20194;-75
2022/10/30 04:05:14;;;;;;;35.10;24.53;;;;;;;8.39;100.00;95379.44;5029368;28;20206;-76
2022/10/30 04:07:41;;;;;;;40.50;25.33;;;;;;;8.35;100.00;95377.38;5032141;28;20206;-76
2022/10/30 04:10:09;;;;;;;42.10;27.80;;;;;;;8.33;100.00;95372.41;5032147;28;20210;-77
2022/10/30 04:12:36;;;;;;;38.93;25.93;;;;;;;8.27;100.00;95385.25;5032348;28;20234;-76
2022/10/30 04:15:03;;;;;;;37.23;25.43;;;;;;;8.26;100.00;95392.22;5032398;28;20279;-78
2022/10/30 04:17:30;;;;;;;49.67;26.93;;;;;;;8.32;100.00;95385.53;5031670;28;20662;-78
2022/10/30 04:19:56;;;;;;;49.03;29.43;;;;;;;8.33;100.00;95387.94;5032344;28;20221;-77
2022/10/30 04:22:25;;;;;;;45.47;30.33;;;;;;;8.36;100.00;95386.78;5031759;28;20728;-77
2022/10/30 04:24:52;;;;;;;45.17;31.03;;;;;;;8.41;100.00;95384.41;5032229;28;20199;-78
2022/10/30 04:27:19;;;;;;;48.03;33.03;;;;;;;8.41;100.00;95393.00;5031955;28;20190;-77
2022/10/30 04:29:46;;;;;;;51.43;34.63;;;;;;;8.36;100.00;95379.00;5031538;28;20237;-76
2022/10/30 04:32:14;;;;;;;51.40;34.30;;;;;;;8.33;100.00;95384.53;5026312;28;20242;-76
2022/10/30 04:34:40;;;;;;;51.17;33.87;;;;;;;8.30;100.00;95387.50;5031299;28;20191;-76
2022/10/30 04:37:07;;;;;;;52.97;31.10;;;;;;;8.22;100.00;95374.66;5030997;28;20199;-76
2022/10/30 04:39:36;;;;;;;41.27;27.53;;;;;;;8.28;100.00;95386.91;5030852;28;20850;-76
2022/10/30 04:42:02;;;;;;;38.93;26.00;;;;;;;8.25;100.00;95382.88;5031633;28;20680;-76
2022/10/30 04:44:29;;;;;;;37.60;24.93;;;;;;;8.28;100.00;95390.25;5030680;28;20241;-75
2022/10/30 04:46:56;;;;;;;42.93;26.30;;;;;;;8.16;100.00;95383.97;5031153;28;20268;-76
2022/10/30 04:49:23;;;;;;;45.93;26.90;;;;;;;8.21;100.00;95396.34;5031025;28;20560;-76
2022/10/30 04:51:50;;;;;;;37.03;25.77;;;;;;;8.25;100.00;95390.63;5030691;28;20207;-76
2022/10/30 04:54:17;;;;;;;45.47;29.10;;;;;;;8.24;100.00;95398.56;5030970;28;20195;-75
2022/10/30 04:56:45;;;;;;;42.70;28.53;;;;;;;8.21;100.00;95398.94;5030913;28;20195;-76
2022/10/30 04:59:11;;;;;;;42.57;27.47;;;;;;;8.17;100.00;95397.69;5031062;28;20613;-76
2022/10/30 05:01:38;;;;;;;45.93;28.90;;;;;;;8.13;100.00;95392.09;5031388;28;20195;-76
2022/10/30 05:04:05;;;;;;;48.20;27.73;;;;;;;8.17;100.00;95392.50;5035191;28;20206;-76
2022/10/30 05:06:33;;;;;;;47.80;26.63;;;;;;;8.22;100.00;95400.56;5032363;28;20193;-76
2022/10/30 05:08:59;;;;;;;39.30;26.93;;;;;;;8.18;100.00;95402.69;5035162;28;20190;-76
2022/10/30 05:11:26;;;;;;;33.87;23.77;;;;;;;8.19;100.00;95398.34;5032295;28;20222;-77
2022/10/30 05:13:54;;;;;;;35.27;24.13;;;;;;;8.23;100.00;95407.31;5032263;28;20677;-76
2022/10/30 05:16:21;;;;;;;33.13;23.23;;;;;;;8.15;100.00;95407.44;5034838;28;20198;-76
2022/10/30 05:18:48;;;;;;;40.90;24.90;;;;;;;8.15;100.00;95415.19;5035347;28;20206;-76
2022/10/30 05:21:15;;;;;;;33.50;21.10;;;;;;;8.15;100.00;95410.03;5034439;28;20187;-76
2022/10/30 05:23:41;;;;;;;36.70;23.90;;;;;;;8.18;100.00;95407.06;5034798;28;20199;-75
2022/10/30 05:26:08;;;;;;;33.23;23.77;;;;;;;8.13;100.00;95414.59;5035048;28;20296;-76
2022/10/30 05:28:35;;;;;;;36.43;23.37;;;;;;;8.06;100.00;95411.13;5034487;28;20206;-76
2022/10/30 05:31:03;;;;;;;31.53;22.73;;;;;;;8.04;100.00;95411.31;5034659;28;20193;-76
2022/10/30 05:33:30;;;;;;;39.73;23.87;;;;;;;8.10;100.00;95409.78;5034265;28;20207;-75
2022/10/30 05:35:57;;;;;;;33.33;21.30;;;;;;;8.19;100.00;95417.25;5034552;28;20213;-78
2022/10/30 05:38:24;;;;;;;33.83;22.43;;;;;;;8.14;100.00;95395.50;5034585;28;20206;-78
2022/10/30 05:40:51;;;;;;;39.97;23.40;;;;;;;8.27;100.00;95418.91;5034596;28;20552;-77
2022/10/30 05:43:17;;;;;;;36.87;23.93;;;;;;;8.30;100.00;95414.22;5034063;28;20709;-79
2022/10/30 05:45:44;;;;;;;32.37;23.00;;;;;;;8.33;100.00;95407.84;5034395;28;20195;-78
2022/10/30 05:48:12;;;;;;;36.77;22.90;;;;;;;8.27;100.00;95406.81;5034266;28;20532;-78
2022/10/30 05:50:40;;;;;;;31.10;22.33;;;;;;;8.30;100.00;95406.44;5034166;28;20199;-76
2022/10/30 05:53:07;;;;;;;36.10;23.17;;;;;;;8.28;100.00;95392.06;5033898;28;20214;-76
2022/10/30 05:55:35;;;;;;;41.97;24.50;;;;;;;8.34;100.00;95409.47;5031708;28;20296;-76
2022/10/30 05:58:04;;;;;;;42.70;24.30;;;;;;;8.36;100.00;95413.47;5033537;28;20187;-76
2022/10/30 06:00:33;;;;;;;38.53;23.80;;;;;;;8.44;100.00;95409.94;5033311;28;20191;-77
2022/10/30 06:03:00;;;;;;;42.07;24.03;;;;;;;8.51;100.00;95413.41;5033850;28;20599;-76
2022/10/30 06:05:29;;;;;;;38.47;24.67;;;;;;;8.54;100.00;95407.84;5033513;28;20194;-77
2022/10/30 06:07:56;;;;;;;45.63;24.57;;;;;;;8.59;100.00;95408.09;5034572;28;20195;-78
2022/10/30 06:10:23;;;;;;;43.93;26.07;;;;;;;8.58;100.00;95393.53;5034191;28;20206;-80
2022/10/30 06:12:54;;;;;;;42.20;26.97;;;;;;;8.64;100.00;95415.28;5033623;28;20222;-78
2022/10/30 06:15:21;;;;;;;42.33;27.10;;;;;;;8.70;100.00;95414.53;5033043;28;20195;-76
2022/10/30 06:17:48;;;;;;;52.83;31.43;;;;;;;8.74;100.00;95408.00;5033579;28;20199;-76
2022/10/30 06:20:15;;;;;;;59.77;34.10;;;;;;;8.69;100.00;95402.56;5033369;28;20723;-76
2022/10/30 06:22:53;;;;;;;57.23;34.77;;;;;;;8.73;100.00;95409.00;5033641;28;20194;-79
2022/10/30 06:25:20;;;;;;;56.67;34.63;;;;;;;8.70;100.00;95406.78;5029659;28;20187;-77
2022/10/30 06:27:50;;;;;;;58.60;33.83;;;;;;;8.80;100.00;95413.22;5033689;28;20984;-78
2022/10/30 06:30:17;;;;;;;57.23;35.17;;;;;;;8.80;100.00;95415.81;5033500;28;20253;-77
2022/10/30 06:32:43;;;;;;;53.57;32.33;;;;;;;8.87;100.00;95426.25;5034101;28;20226;-77
2022/10/30 06:35:11;;;;;;;53.43;32.57;;;;;;;8.88;100.00;95412.31;5033402;28;20197;-78
2022/10/30 06:37:39;;;;;;;48.20;29.33;;;;;;;8.86;100.00;95419.47;5033437;28;20267;-78
2022/10/30 06:40:09;;;;;;;42.93;26.13;;;;;;;8.96;100.00;95422.53;5033228;28;20326;-77
2022/10/30 06:42:42;;;;;;;38.60;25.53;;;;;;;9.03;100.00;95415.59;5025039;28;20191;-78
2022/10/30 06:45:10;;;;;;;37.73;24.10;;;;;;;9.16;100.00;95414.88;5032880;28;20652;-78
2022/10/30 06:47:37;;;;;;;32.53;21.97;;;;;;;9.10;100.00;95393.91;5033366;28;20195;-77
2022/10/30 06:50:05;;;;;;;31.33;21.07;;;;;;;9.30;100.00;95419.16;5033195;28;20740;-77
2022/10/30 06:52:31;;;;;;;34.87;21.33;;;;;;;9.34;100.00;95431.56;5033005;28;20704;-78
2022/10/30 06:54:58;;;;;;;40.37;20.17;;;;;;;9.41;100.00;95434.97;5032817;28;20599;-77
2022/10/30 06:57:26;;;;;;;28.23;18.83;;;;;;;9.45;100.00;95419.84;5033118;28;20265;-77
2022/10/30 06:59:53;;;;;;;27.80;18.10;;;;;;;9.47;100.00;95412.66;5033103;28;20191;-77
2022/10/30 07:02:20;;;;;;;25.60;19.13;;;;;;;9.44;100.00;95421.63;5032984;28;20187;-78
2022/10/30 07:04:47;;;;;;;27.40;18.77;;;;;;;9.48;100.00;95422.06;5032627;28;20197;-78
2022/10/30 07:07:14;;;;;;;28.07;18.60;;;;;;;9.55;100.00;95425.50;5030098;28;20713;-78
2022/10/30 07:09:42;;;;;;;28.07;18.50;;;;;;;9.66;100.00;95427.53;5032883;28;20194;-78
2022/10/30 07:12:09;;;;;;;44.43;19.80;;;;;;;9.69;100.00;95437.53;5029674;28;20280;-78
2022/10/30 07:14:38;;;;;;;51.00;20.00;;;;;;;9.75;100.00;95428.97;5032942;28;20260;-78
2022/10/30 07:17:04;;;;;;;193.67;24.63;;;;;;;9.77;100.00;95408.81;5032733;28;20195;-77
2022/10/30 07:19:31;;;;;;;36.03;18.43;;;;;;;9.89;100.00;95417.66;5032552;28;20187;-78
2022/10/30 07:21:58;;;;;;;32.93;19.23;;;;;;;9.91;100.00;95415.66;5032334;28;20195;-78
2022/10/30 07:24:25;;;;;;;31.33;19.30;;;;;;;9.98;100.00;95411.28;5032020;28;20191;-77
2022/10/30 07:26:52;;;;;;;34.97;19.63;;;;;;;10.13;100.00;95405.94;5031811;28;20677;-78
2022/10/30 07:29:18;;;;;;;25.10;18.87;;;;;;;10.11;100.00;95398.31;5032736;28;20662;-78
2022/10/30 07:31:48;;;;;;;26.73;19.23;;;;;;;10.14;100.00;95408.34;5032560;28;20194;-78
2022/10/30 07:34:15;;;;;;;28.57;19.37;;;;;;;10.23;100.00;95403.78;5030006;28;20282;-76
2022/10/30 07:36:42;;;;;;;28.10;19.27;;;;;;;10.31;100.00;95400.19;5032134;28;20199;-76
2022/10/30 07:39:09;;;;;;;26.23;19.30;;;;;;;10.34;100.00;95400.59;5032011;28;20680;-77
2022/10/30 07:41:35;;;;;;;30.27;19.67;;;;;;;10.45;100.00;95405.22;5031805;28;20218;-76
2022/10/30 07:44:02;;;;;;;28.13;19.50;;;;;;;10.52;100.00;95392.22;5031358;28;20227;-76
2022/10/30 07:46:29;;;;;;;30.37;19.47;;;;;;;10.62;100.00;95400.44;5032074;28;20202;-76
2022/10/30 07:48:57;;;;;;;37.70;20.33;;;;;;;10.66;100.00;95388.63;5031779;28;20199;-76
2022/10/30 07:51:24;;;;;;;30.33;20.97;;;;;;;10.79;100.00;95394.63;5031850;28;20191;-76
2022/10/30 07:53:51;;;;;;;27.57;18.63;;;;;;;10.86;100.00;95396.41;5031982;28;20738;-79
2022/10/30 07:56:18;;;;;;;29.97;19.73;;;;;;;10.93;100.00;95392.03;5031988;28;20602;-76
2022/10/30 07:58:45;;;;;;;29.97;19.97;;;;;;;10.91;100.00;95370.63;5031699;28;20611;-77
2022/10/30 08:01:12;;;;;;;29.70;19.30;;;;;;;10.97;100.00;95373.22;5031564;28;20187;-77
2022/10/30 08:03:38;;;;;;;30.10;20.20;;;;;;;11.14;100.00;95389.22;5031547;28;20665;-76
2022/10/30 08:06:07;;;;;;;29.37;20.53;;;;;;;11.22;100.00;95383.78;5031172;28;20195;-75
2022/10/30 08:08:34;;;;;;;31.63;20.83;;;;;;;11.32;100.00;95374.53;5029067;28;20249;-76
2022/10/30 08:11:00;;;;;;;31.87;21.87;;;;;;;11.43;100.00;95374.94;5031698;28;20198;-74
2022/10/30 08:13:27;;;;;;;33.40;21.37;;;;;;;11.51;99.71;95378.09;5031279;28;20210;-75
2022/10/30 08:15:54;;;;;;;28.17;20.87;;;;;;;11.61;99.47;95377.66;5028731;28;20257;-75
2022/10/30 08:18:21;;;;;;;29.80;20.63;;;;;;;11.73;99.41;95365.63;5030799;28;20677;-75
2022/10/30 08:20:49;;;;;;;34.07;21.13;;;;;;;11.80;98.84;95361.97;5031548;28;20275;-76
2022/10/30 08:23:18;;;;;;;34.07;20.27;;;;;;;11.94;98.14;95360.94;5030961;28;20191;-76
2022/10/30 08:25:46;;;;;;;32.23;19.97;;;;;;;12.03;97.97;95356.28;5030400;28;20555;-76
2022/10/30 08:28:13;;;;;;;29.33;19.47;;;;;;;12.18;97.61;95371.63;5030821;28;20222;-76
2022/10/30 08:30:40;;;;;;;26.03;18.63;;;;;;;12.21;97.62;95368.56;5030903;28;20206;-75
2022/10/30 08:33:11;;;;;;;29.63;18.07;;;;;;;12.34;96.89;95364.09;5030726;28;20218;-75
2022/10/30 08:35:38;;;;;;;23.80;16.73;;;;;;;12.42;96.76;95360.41;5023866;28;20210;-75
2022/10/30 08:38:05;;;;;;;30.33;17.97;;;;;;;12.49;96.70;95367.19;5029914;28;20206;-76
2022/10/30 08:40:33;;;;;;;30.53;18.10;;;;;;;12.63;96.42;95362.66;5030835;28;20661;-77
2022/10/30 08:43:00;;;;;;;25.17;17.60;;;;;;;12.68;95.39;95364.63;5027796;28;20661;-76
2022/10/30 08:45:27;;;;;;;22.20;17.27;;;;;;;12.76;95.58;95367.78;5030480;28;20688;-76
2022/10/30 08:47:57;;;;;;;26.30;18.27;;;;;;;12.85;94.68;95368.28;5028041;28;20646;-75
2022/10/30 08:50:24;;;;;;;28.97;18.87;;;;;;;12.97;93.96;95367.41;5030902;28;20556;-76
2022/10/30 08:52:51;;;;;;;28.20;19.13;;;;;;;13.24;92.60;95359.34;5030433;28;20222;-76
2022/10/30 08:55:18;;;;;;;25.60;17.47;;;;;;;13.54;91.29;95353.16;5030810;28;20190;-75
2022/10/30 08:57:46;;;;;;;28.40;18.33;;;;;;;14.00;89.48;95349.97;5030646;28;20210;-75
2022/10/30 09:00:13;;;;;;;25.87;17.40;;;;;;;14.70;87.68;95361.47;5030244;28;20257;-76
2022/10/30 09:02:40;;;;;;;25.87;17.07;;;;;;;15.33;83.72;95358.16;5030544;28;20199;-76
2022/10/30 09:05:08;;;;;;;23.50;15.77;;;;;;;16.05;80.57;95350.72;5030685;28;20202;-75
2022/10/30 09:07:35;;;;;;;21.30;15.20;;;;;;;16.80;77.30;95361.75;5027538;28;20566;-76
2022/10/30 09:10:01;;;;;;;20.90;14.90;;;;;;;17.34;74.15;95354.94;5030674;28;20218;-75
2022/10/30 09:12:28;;;;;;;26.40;14.73;;;;;;;18.01;70.72;95345.00;5030546;28;20226;-75
2022/10/30 09:14:56;;;;;;;22.57;15.07;;;;;;;18.57;68.40;95356.91;5030327;28;20191;-76
2022/10/30 09:17:23;;;;;;;22.90;15.03;;;;;;;19.22;66.26;95362.69;5030694;28;20214;-76
2022/10/30 09:19:50;;;;;;;19.47;14.23;;;;;;;19.71;64.36;95355.34;5030333;28;20195;-75
2022/10/30 09:22:17;;;;;;;17.08;13.80;;;;;;;20.17;61.43;95361.56;5030247;28;20198;-77
2022/10/30 09:24:44;;;;;;;18.48;13.88;;;;;;;20.61;59.77;95356.66;5030977;28;20214;-76
2022/10/30 09:27:11;;;;;;;15.88;12.63;;;;;;;20.98;58.57;95360.91;5030544;28;20195;-76
2022/10/30 09:29:37;;;;;;;20.77;13.68;;;;;;;21.42;57.08;95356.66;5030509;28;20256;-75
2022/10/30 09:32:08;;;;;;;23.10;13.52;;;;;;;21.88;55.71;95355.47;5030296;28;20191;-78
2022/10/30 09:34:36;;;;;;;20.80;13.52;;;;;;;22.53;53.42;95359.66;5027716;28;20254;-78
2022/10/30 09:37:03;;;;;;;20.13;14.05;;;;;;;23.27;51.23;95355.09;5030599;28;20195;-77
2022/10/30 09:39:30;;;;;;;20.75;13.48;;;;;;;23.96;48.90;95357.31;5030576;28;20249;-75
2022/10/30 09:42:23;;;;;;;21.30;12.85;;;;;;;24.53;47.55;95346.47;5030292;28;20195;-75
2022/10/30 09:45:03;;;;;;;20.98;12.20;;;;;;;25.19;45.54;95343.63;5029822;28;20608;-76
2022/10/30 09:47:42;;;;;;;20.65;12.90;;;;;;;25.41;44.92;95348.28;5030019;28;20189;-75
2022/10/30 09:50:24;;;;;;;21.60;12.93;;;;;;;25.73;43.61;95328.78;5033527;28;20199;-75
2022/10/30 09:53:02;;;;;;;19.17;12.65;;;;;;;25.97;43.00;95342.72;5034043;28;20534;-75
2022/10/30 09:55:34;;;;;;;19.83;11.85;;;;;;;26.20;42.59;95338.28;5033862;28;20221;-76
2022/10/30 09:58:14;;;;;;;17.08;11.07;;;;;;;26.35;41.35;95321.91;5034213;28;20226;-76
2022/10/30 10:00:49;;;;;;;17.60;10.90;;;;;;;26.78;40.40;95332.97;5032470;28;20186;-75
2022/10/30 10:03:33;;;;;;;17.88;11.80;;;;;;;27.08;40.44;95324.22;5031189;28;20194;-76
2022/10/30 10:06:03;;;;;;;22.95;12.93;;;;;;;27.25;39.74;95319.00;5032111;28;20245;-76
2022/10/30 10:08:37;;;;;;;20.77;12.43;;;;;;;26.83;39.17;95322.19;5033209;28;20194;-76
2022/10/30 10:11:09;;;;;;;20.95;12.82;;;;;;;26.38;41.05;95308.78;5033530;28;20284;-76
2022/10/30 10:13:41;;;;;;;13.98;9.80;;;;;;;26.63;40.81;95309.31;5031505;28;20233;-75
2022/10/30 10:16:18;;;;;;;19.40;9.43;;;;;;;26.80;39.72;95301.44;5033536;28;20198;-75
2022/10/30 10:18:50;;;;;;;14.38;8.77;;;;;;;27.17;38.81;95295.72;5034166;28;20187;-76
2022/10/30 10:21:24;;;;;;;16.98;9.02;;;;;;;27.43;38.10;95296.66;5031057;28;20583;-76
2022/10/30 10:23:54;;;;;;;10.93;7.03;;;;;;;27.64;37.53;95294.22;5033077;28;20186;-76
2022/10/30 10:26:29;;;;;;;10.60;6.50;;;;;;;27.41;35.77;95293.50;5033403;28;20676;-76
2022/10/30 10:29:22;;;;;;;10.85;6.18;;;;;;;27.63;37.27;95289.16;5030637;28;20194;-76
2022/10/30 10:31:59;;;;;;;15.35;7.70;;;;;;;27.56;36.36;95281.63;5032430;28;20205;-75
2022/10/30 10:34:44;;;;;;;16.60;8.95;;;;;;;27.47;36.70;95278.13;5033310;28;20198;-75
2022/10/30 10:37:23;;;;;;;25.00;11.30;;;;;;;27.11;37.22;95269.44;5032354;28;20202;-76
2022/10/30 10:40:09;;;;;;;9.15;5.90;;;;;;;27.31;36.58;95274.25;5033389;28;20576;-75
2022/10/30 10:42:46;;;;;;;17.52;6.72;;;;;;;27.70;35.30;95270.81;5030229;28;20249;-77
2022/10/30 10:45:21;;;;;;;13.00;7.32;;;;;;;26.80;36.06;95253.44;5032988;28;20593;-77
2022/10/30 10:48:13;;;;;;;19.10;9.45;;;;;;;26.14;37.52;95256.81;5033414;28;20189;-76
2022/10/30 10:50:48;;;;;;;12.60;7.47;;;;;;;26.28;37.47;95252.25;5027861;28;20199;-77
2022/10/30 10:53:21;;;;;;;10.60;5.32;;;;;;;26.08;37.68;95252.66;5030501;28;20206;-77
2022/10/30 10:55:51;;;;;;;11.68;6.22;;;;;;;26.73;37.56;95245.81;5033230;28;20286;-79
2022/10/30 10:58:27;;;;;;;11.70;5.65;;;;;;;27.57;36.96;95248.47;5034251;28;20198;-80
2022/10/30 11:00:56;;;;;;;30.48;17.90;;;;;;;28.21;34.49;95246.88;5032940;28;20652;-80
2022/10/30 11:03:29;;;;;;;9.40;5.40;;;;;;;28.74;33.62;95243.88;5033509;28;20238;-80
2022/10/30 11:06:03;;;;;;;11.05;4.47;;;;;;;29.47;32.78;95237.34;5029861;28;20653;-81
2022/10/30 11:08:31;;;;;;;8.60;4.60;;;;;;;29.98;31.61;95239.00;5032220;28;20194;-80
2022/10/30 11:11:00;;;;;;;9.27;5.78;;;;;;;30.54;31.18;95242.19;5033682;28;20198;-81
2022/10/30 11:13:30;;;;;;;28.50;14.88;;;;;;;30.60;29.37;95222.09;5031009;28;20221;-77
2022/10/30 11:16:05;;;;;;;44.00;25.13;;;;;;;30.50;29.79;95227.88;5029831;28;20194;-78
2022/10/30 11:18:33;;;;;;;67.75;40.75;;;;;;;30.58;29.95;95224.34;5031944;28;20213;-76
2022/10/30 11:21:07;;;;;;;153.00;80.28;;;;;;;30.86;29.45;95215.34;5032787;28;20194;-76
2022/10/30 11:23:38;;;;;;;9.15;6.40;;;;;;;30.85;28.75;95218.38;5029436;28;20244;-77
2022/10/30 11:26:29;;;;;;;9.55;4.80;;;;;;;30.99;29.08;95205.47;5031730;28;20194;-77
2022/10/30 11:28:59;;;;;;;8.20;4.00;;;;;;;31.27;28.27;95221.72;5029871;28;20583;-79